Time;durP1;ratioP1;P1;durP2;ratioP2;P2;SDS_P1;SDS_P2;PMS_P1;PMS_P2;Temp;Humidity;BMP_temperature;BMP_pressure;BME280_temperature;BME280_humidity;BME280_pressure;Samples;Min_cycle;Max_cycle;Signal;HPM_P1;HPM_P2
2022/10/29 00:01:47;;;;;;;;;18.75;11.25;;;;;;;;5083975;27;61762;-79
2022/10/29 00:04:12;;;;;;;;;6.67;6.00;;;;;;;;5084292;28;61764;-79
2022/10/29 00:06:37;;;;;;;;;8.67;6.67;;;;;;;;5084205;27;61890;-79
2022/10/29 00:09:02;;;;;;;;;8.67;7.00;;;;;;;;5082479;28;62114;-79
2022/10/29 00:11:28;;;;;;;;;13.33;8.33;;;;;;;;5082545;27;63638;-79
2022/10/29 00:13:54;;;;;;;;;9.00;7.67;;;;;;;;5082968;27;62053;-79
2022/10/29 00:16:21;;;;;;;;;9.33;8.33;;;;;;;;5084377;27;61707;-79
2022/10/29 00:18:46;;;;;;;;;9.75;7.75;;;;;;;;5083795;27;61859;-79
2022/10/29 00:21:13;;;;;;;;;11.33;8.67;;;;;;;;5082235;27;62675;-80
2022/10/29 00:23:38;;;;;;;;;9.00;9.00;;;;;;;;5083376;28;61881;-79
2022/10/29 00:26:04;;;;;;;;;12.67;8.67;;;;;;;;5084396;28;61805;-79
2022/10/29 00:28:30;;;;;;;;;12.67;10.33;;;;;;;;5083989;27;61758;-79
2022/10/29 00:30:55;;;;;;;;;9.33;8.67;;;;;;;;5082003;28;63722;-79
2022/10/29 00:33:20;;;;;;;;;9.33;8.67;;;;;;;;5082617;28;61715;-79
2022/10/29 00:35:55;;;;;;;;;9.33;8.67;;;;;;;;5082766;27;61677;-79
2022/10/29 00:38:20;;;;;;;;;10.00;8.00;;;;;;;;5083107;27;62107;-79
2022/10/29 00:40:46;;;;;;;;;13.00;13.00;;;;;;;;5081940;27;62793;-79
2022/10/29 00:43:12;;;;;;;;;12.00;8.67;;;;;;;;5082193;27;61712;-79
2022/10/29 00:45:39;;;;;;;;;11.33;9.67;;;;;;;;5083726;28;61709;-79
2022/10/29 00:48:04;;;;;;;;;8.67;7.67;;;;;;;;5082582;27;61920;-79
2022/10/29 00:50:30;;;;;;;;;6.33;6.33;;;;;;;;5081027;27;63494;-79
2022/10/29 00:52:56;;;;;;;;;13.75;9.00;;;;;;;;5083177;28;62024;-79
2022/10/29 00:55:21;;;;;;;;;11.00;6.33;;;;;;;;5082504;28;61752;-79
2022/10/29 00:57:48;;;;;;;;;8.33;8.00;;;;;;;;5100573;27;61731;-79
2022/10/29 01:00:15;;;;;;;;;8.67;8.67;;;;;;;;5103422;27;61990;-79
2022/10/29 01:02:41;;;;;;;;;11.33;9.67;;;;;;;;5103746;27;61674;-79
2022/10/29 01:05:08;;;;;;;;;10.00;8.33;;;;;;;;5085348;27;61929;-79
2022/10/29 01:07:33;;;;;;;;;9.25;8.50;;;;;;;;5086386;27;62058;-79
2022/10/29 01:09:58;;;;;;;;;10.00;8.67;;;;;;;;5082792;28;61882;-79
2022/10/29 01:12:23;;;;;;;;;12.33;9.00;;;;;;;;5065292;28;62122;-79
2022/10/29 01:14:49;;;;;;;;;13.00;11.75;;;;;;;;5065089;28;61984;-79
2022/10/29 01:17:17;;;;;;;;;11.67;10.67;;;;;;;;5083718;27;61744;-79
2022/10/29 01:19:42;;;;;;;;;16.00;10.00;;;;;;;;5081796;28;62914;-79
2022/10/29 01:22:07;;;;;;;;;13.67;7.67;;;;;;;;5082508;28;61882;-79
2022/10/29 01:24:46;;;;;;;;;11.00;9.00;;;;;;;;5064865;27;61918;-79
2022/10/29 01:27:17;;;;;;;;;12.00;9.00;;;;;;;;5083484;27;61823;-79
2022/10/29 01:29:54;;;;;;;;;10.67;10.33;;;;;;;;5063691;28;63041;-79
2022/10/29 01:32:25;;;;;;;;;9.75;8.75;;;;;;;;5083227;27;61756;-79
2022/10/29 01:34:53;;;;;;;;;10.00;8.75;;;;;;;;5082551;28;61783;-79
2022/10/29 01:37:22;;;;;;;;;10.00;10.00;;;;;;;;5064777;28;61824;-79
2022/10/29 01:39:50;;;;;;;;;9.00;9.00;;;;;;;;5081837;28;61853;-79
2022/10/29 01:42:18;;;;;;;;;16.50;9.75;;;;;;;;5082957;27;61881;-79
2022/10/29 01:44:54;;;;;;;;;11.00;8.67;;;;;;;;5082954;27;61800;-79
2022/10/29 01:47:20;;;;;;;;;9.75;9.25;;;;;;;;5064622;28;61843;-79
2022/10/29 01:49:53;;;;;;;;;9.33;7.00;;;;;;;;5062702;28;62090;-79
2022/10/29 01:52:20;;;;;;;;;9.75;8.75;;;;;;;;5082525;27;61735;-79
2022/10/29 01:54:46;;;;;;;;;16.00;11.25;;;;;;;;5082866;28;61677;-79
2022/10/29 01:57:41;;;;;;;;;13.67;9.67;;;;;;;;5064670;28;61663;-79
2022/10/29 02:00:10;;;;;;;;;14.67;9.00;;;;;;;;5068268;28;62680;-80
2022/10/29 02:02:54;;;;;;;;;12.50;8.00;;;;;;;;5064009;28;62081;-79
2022/10/29 02:05:30;;;;;;;;;14.50;9.00;;;;;;;;5063913;28;61785;-79
2022/10/29 02:07:58;;;;;;;;;10.33;8.33;;;;;;;;5102078;27;62341;-79
2022/10/29 02:10:32;;;;;;;;;6.67;6.67;;;;;;;;5083585;27;62088;-79
2022/10/29 02:12:58;;;;;;;;;10.50;9.50;;;;;;;;5084216;27;61743;-79
2022/10/29 02:15:23;;;;;;;;;9.33;8.33;;;;;;;;5084457;27;61807;-79
2022/10/29 02:17:49;;;;;;;;;9.00;7.00;;;;;;;;5102819;27;61823;-79
2022/10/29 02:20:15;;;;;;;;;11.00;10.00;;;;;;;;5101546;27;61661;-79
2022/10/29 02:22:40;;;;;;;;;13.00;10.00;;;;;;;;5102391;27;61734;-79
2022/10/29 02:25:06;;;;;;;;;9.33;7.00;;;;;;;;5102729;27;61841;-79
2022/10/29 02:27:32;;;;;;;;;10.00;7.67;;;;;;;;5084852;27;61730;-79
2022/10/29 02:29:57;;;;;;;;;7.67;7.33;;;;;;;;5101778;27;61834;-79
2022/10/29 02:32:22;;;;;;;;;10.00;8.75;;;;;;;;5102578;27;61970;-79
2022/10/29 02:34:48;;;;;;;;;15.00;9.33;;;;;;;;5102216;27;62014;-79
2022/10/29 02:37:13;;;;;;;;;10.50;10.50;;;;;;;;5102724;27;61842;-79
2022/10/29 02:39:38;;;;;;;;;12.00;8.00;;;;;;;;5101806;27;61874;-79
2022/10/29 02:42:04;;;;;;;;;12.50;10.25;;;;;;;;5084065;27;61798;-79
2022/10/29 02:44:29;;;;;;;;;7.25;6.00;;;;;;;;5102539;27;61870;-79
2022/10/29 02:46:54;;;;;;;;;10.00;7.75;;;;;;;;5084346;27;61817;-79
2022/10/29 02:49:19;;;;;;;;;13.75;8.75;;;;;;;;5082650;27;63327;-79
2022/10/29 02:51:45;;;;;;;;;13.00;7.67;;;;;;;;5084050;27;61969;-79
2022/10/29 02:54:10;;;;;;;;;13.75;11.25;;;;;;;;5101889;27;61953;-79
2022/10/29 02:56:35;;;;;;;;;9.00;9.00;;;;;;;;5102463;27;61725;-79
2022/10/29 02:59:01;;;;;;;;;10.00;7.75;;;;;;;;5101656;27;61800;-79
2022/10/29 03:01:26;;;;;;;;;13.00;11.00;;;;;;;;5102325;27;61902;-79
2022/10/29 03:03:51;;;;;;;;;9.25;9.00;;;;;;;;5083406;27;62029;-79
2022/10/29 03:06:17;;;;;;;;;13.50;9.00;;;;;;;;5102193;27;61977;-79
2022/10/29 03:08:43;;;;;;;;;7.25;5.50;;;;;;;;5083061;27;63046;-79
2022/10/29 03:11:08;;;;;;;;;8.00;7.00;;;;;;;;5083741;27;61780;-79
2022/10/29 03:13:33;;;;;;;;;14.25;9.00;;;;;;;;5083881;27;61817;-79
2022/10/29 03:15:58;;;;;;;;;11.25;8.75;;;;;;;;5083916;27;61838;-79
2022/10/29 03:18:24;;;;;;;;;10.00;8.00;;;;;;;;5100949;27;62981;-80
2022/10/29 03:20:49;;;;;;;;;10.00;8.50;;;;;;;;5102803;27;61899;-79
2022/10/29 03:23:14;;;;;;;;;8.67;7.00;;;;;;;;5105043;27;61875;-79
2022/10/29 03:25:40;;;;;;;;;9.50;9.50;;;;;;;;5087554;27;61767;-79
2022/10/29 03:28:05;;;;;;;;;8.50;8.50;;;;;;;;5086302;27;62010;-79
2022/10/29 03:30:30;;;;;;;;;8.50;6.25;;;;;;;;5086973;27;61848;-79
2022/10/29 03:32:56;;;;;;;;;8.50;8.00;;;;;;;;5086696;27;61810;-79
2022/10/29 03:35:21;;;;;;;;;9.75;7.00;;;;;;;;5105584;27;61938;-79
2022/10/29 03:37:50;;;;;;;;;11.00;8.00;;;;;;;;5085930;27;62001;-79
2022/10/29 03:40:15;;;;;;;;;8.00;7.00;;;;;;;;5105175;27;61755;-79
2022/10/29 03:42:41;;;;;;;;;8.00;8.00;;;;;;;;5087013;27;61816;-79
2022/10/29 03:45:08;;;;;;;;;10.33;8.00;;;;;;;;5086527;27;61762;-79
2022/10/29 03:47:33;;;;;;;;;9.50;7.50;;;;;;;;5104500;27;62664;-79
2022/10/29 03:49:58;;;;;;;;;10.75;8.00;;;;;;;;5104562;27;61783;-79
2022/10/29 03:52:23;;;;;;;;;8.00;7.25;;;;;;;;5104977;27;61863;-79
2022/10/29 03:54:50;;;;;;;;;9.00;5.25;;;;;;;;5105616;27;62072;-79
2022/10/29 03:57:17;;;;;;;;;9.50;7.00;;;;;;;;5082032;28;62866;-79
2022/10/29 03:59:47;;;;;;;;;7.00;7.00;;;;;;;;5083052;27;61831;-79
2022/10/29 04:02:12;;;;;;;;;8.00;8.00;;;;;;;;5084539;27;61792;-79
2022/10/29 04:04:38;;;;;;;;;9.75;6.75;;;;;;;;5083216;28;62154;-79
2022/10/29 04:07:03;;;;;;;;;9.50;7.00;;;;;;;;5082321;27;62076;-79
2022/10/29 04:09:28;;;;;;;;;11.50;8.75;;;;;;;;5083842;27;61959;-79
2022/10/29 04:11:54;;;;;;;;;7.00;7.00;;;;;;;;5084609;27;62130;-79
2022/10/29 04:14:19;;;;;;;;;12.75;6.25;;;;;;;;5084086;28;61822;-80
2022/10/29 04:16:44;;;;;;;;;9.67;5.00;;;;;;;;5082074;27;63745;-79
2022/10/29 04:19:09;;;;;;;;;7.67;6.67;;;;;;;;5083582;27;61937;-79
2022/10/29 04:21:35;;;;;;;;;8.33;7.00;;;;;;;;5084262;27;61703;-79
2022/10/29 04:24:00;;;;;;;;;9.33;8.33;;;;;;;;5084031;27;61702;-79
2022/10/29 04:26:25;;;;;;;;;9.00;7.33;;;;;;;;5083669;27;61987;-79
2022/10/29 04:28:51;;;;;;;;;13.00;7.33;;;;;;;;5081969;28;62135;-79
2022/10/29 04:31:16;;;;;;;;;9.00;9.00;;;;;;;;5082780;27;61780;-79
2022/10/29 04:33:41;;;;;;;;;10.75;7.50;;;;;;;;5084069;27;61759;-79
2022/10/29 04:36:07;;;;;;;;;8.50;7.25;;;;;;;;5083498;27;61879;-79
2022/10/29 04:38:32;;;;;;;;;11.00;9.00;;;;;;;;5083445;27;61748;-79
2022/10/29 04:40:58;;;;;;;;;8.00;6.33;;;;;;;;5083705;27;61847;-79
2022/10/29 04:43:24;;;;;;;;;7.25;6.25;;;;;;;;5083396;27;61838;-79
2022/10/29 04:45:53;;;;;;;;;9.00;6.00;;;;;;;;5081862;27;64525;-79
2022/10/29 04:48:18;;;;;;;;;11.67;7.33;;;;;;;;5082576;27;61670;-79
2022/10/29 04:50:43;;;;;;;;;11.00;6.75;;;;;;;;5082268;27;61868;-79
2022/10/29 04:53:08;;;;;;;;;9.25;8.00;;;;;;;;5083348;28;61728;-79
2022/10/29 04:55:35;;;;;;;;;9.67;8.33;;;;;;;;5083126;28;62211;-79
2022/10/29 04:58:00;;;;;;;;;12.33;10.00;;;;;;;;5103195;27;61657;-79
2022/10/29 05:00:25;;;;;;;;;9.50;8.00;;;;;;;;5103815;27;61692;-79
2022/10/29 05:02:51;;;;;;;;;8.50;8.50;;;;;;;;5085790;27;61759;-79
2022/10/29 05:05:17;;;;;;;;;13.50;8.00;;;;;;;;5084662;27;62293;-79
2022/10/29 05:07:43;;;;;;;;;11.00;8.25;;;;;;;;5103459;27;61665;-79
2022/10/29 05:10:08;;;;;;;;;11.00;6.00;;;;;;;;5085436;27;61916;-79
2022/10/29 05:12:34;;;;;;;;;8.33;6.00;;;;;;;;5103223;27;61686;-79
2022/10/29 05:14:59;;;;;;;;;10.33;7.67;;;;;;;;5084968;27;62138;-79
2022/10/29 05:17:24;;;;;;;;;10.33;7.00;;;;;;;;5085280;27;61986;-79
2022/10/29 05:19:49;;;;;;;;;8.50;7.75;;;;;;;;5103433;27;61787;-79
2022/10/29 05:22:15;;;;;;;;;9.50;7.50;;;;;;;;5103751;27;61844;-79
2022/10/29 05:24:40;;;;;;;;;7.75;7.75;;;;;;;;5102800;27;61839;-79
2022/10/29 05:27:05;;;;;;;;;10.75;8.00;;;;;;;;5103303;27;62184;-79
2022/10/29 05:29:31;;;;;;;;;9.75;7.75;;;;;;;;5084992;27;61926;-79
2022/10/29 05:31:56;;;;;;;;;12.00;7.50;;;;;;;;5103888;27;61802;-79
2022/10/29 05:34:21;;;;;;;;;7.00;7.00;;;;;;;;5103071;27;61952;-79
2022/10/29 05:36:47;;;;;;;;;10.00;6.25;;;;;;;;5084861;27;62080;-79
2022/10/29 05:39:12;;;;;;;;;11.00;8.00;;;;;;;;5102925;27;62058;-79
2022/10/29 05:41:37;;;;;;;;;10.50;7.25;;;;;;;;5103163;27;62093;-79
2022/10/29 05:44:02;;;;;;;;;11.00;8.00;;;;;;;;5083551;27;62169;-80
2022/10/29 05:46:28;;;;;;;;;7.00;7.00;;;;;;;;5084808;27;61755;-79
2022/10/29 05:48:53;;;;;;;;;10.25;7.50;;;;;;;;5102960;27;61850;-79
2022/10/29 05:51:18;;;;;;;;;8.00;7.75;;;;;;;;5103306;27;61914;-81
2022/10/29 05:53:44;;;;;;;;;11.25;7.50;;;;;;;;5083778;27;61909;-79
2022/10/29 05:56:09;;;;;;;;;8.50;6.25;;;;;;;;5102847;27;61745;-76
2022/10/29 05:58:34;;;;;;;;;10.00;7.75;;;;;;;;5102829;27;61871;-75
2022/10/29 06:00:59;;;;;;;;;7.50;5.25;;;;;;;;5103093;27;61933;-77
2022/10/29 06:03:25;;;;;;;;;8.75;7.00;;;;;;;;5102745;27;61735;-78
2022/10/29 06:05:50;;;;;;;;;8.50;7.00;;;;;;;;5102614;27;61704;-76
2022/10/29 06:08:16;;;;;;;;;8.50;7.50;;;;;;;;5102525;27;61911;-76
2022/10/29 06:10:41;;;;;;;;;9.50;7.50;;;;;;;;5102680;27;62018;-76
2022/10/29 06:13:11;;;;;;;;;10.75;6.50;;;;;;;;5102545;27;62737;-77
2022/10/29 06:15:36;;;;;;;;;9.75;5.25;;;;;;;;5102751;27;61835;-76
2022/10/29 06:18:01;;;;;;;;;11.25;7.50;;;;;;;;5102730;27;61719;-76
2022/10/29 06:20:27;;;;;;;;;9.00;6.00;;;;;;;;5102446;27;61720;-77
2022/10/29 06:22:56;;;;;;;;;10.25;8.75;;;;;;;;5083534;27;63760;-75
2022/10/29 06:25:21;;;;;;;;;8.25;5.50;;;;;;;;5083674;27;61712;-78
2022/10/29 06:27:47;;;;;;;;;9.50;9.25;;;;;;;;5102488;27;61673;-78
2022/10/29 06:30:12;;;;;;;;;13.50;9.75;;;;;;;;5102772;27;61893;-78
2022/10/29 06:32:38;;;;;;;;;9.25;7.50;;;;;;;;5102044;27;61752;-78
2022/10/29 06:35:03;;;;;;;;;8.50;6.00;;;;;;;;5084285;27;61668;-78
2022/10/29 06:37:32;;;;;;;;;7.75;7.00;;;;;;;;5082942;27;61842;-78
2022/10/29 06:39:57;;;;;;;;;12.25;8.25;;;;;;;;5075673;27;61943;-78
2022/10/29 06:42:22;;;;;;;;;13.00;8.25;;;;;;;;5082807;27;63216;-78
2022/10/29 06:44:48;;;;;;;;;15.50;8.50;;;;;;;;5098865;27;61918;-76
2022/10/29 06:47:13;;;;;;;;;8.00;7.00;;;;;;;;5100634;27;61779;-76
2022/10/29 06:49:38;;;;;;;;;9.75;8.25;;;;;;;;5096561;27;61857;-76
2022/10/29 06:52:07;;;;;;;;;10.75;7.00;;;;;;;;5102053;27;61959;-75
2022/10/29 06:54:32;;;;;;;;;11.75;8.00;;;;;;;;5101303;27;61838;-79
2022/10/29 06:56:57;;;;;;;;;14.25;11.75;;;;;;;;5103524;27;62795;-78
2022/10/29 06:59:24;;;;;;;;;9.00;7.75;;;;;;;;5087249;27;61737;-79
2022/10/29 07:01:49;;;;;;;;;9.50;7.00;;;;;;;;5086100;27;62127;-80
2022/10/29 07:04:16;;;;;;;;;13.00;8.75;;;;;;;;5086864;27;61827;-76
2022/10/29 07:06:41;;;;;;;;;13.00;9.75;;;;;;;;5104770;27;62068;-75
2022/10/29 07:09:07;;;;;;;;;19.25;9.75;;;;;;;;5103698;27;62241;-77
2022/10/29 07:11:32;;;;;;;;;7.75;7.75;;;;;;;;5104562;27;61974;-77
2022/10/29 07:13:57;;;;;;;;;7.25;6.50;;;;;;;;5105539;27;61728;-78
2022/10/29 07:16:23;;;;;;;;;11.75;9.25;;;;;;;;5105991;27;61828;-76
2022/10/29 07:18:48;;;;;;;;;8.75;8.75;;;;;;;;5086866;27;62273;-77
2022/10/29 07:21:13;;;;;;;;;11.75;8.75;;;;;;;;5104994;27;61766;-76
2022/10/29 07:23:39;;;;;;;;;9.75;7.75;;;;;;;;5104804;27;61937;-76
2022/10/29 07:26:04;;;;;;;;;11.50;7.50;;;;;;;;5086360;27;61782;-76
2022/10/29 07:28:29;;;;;;;;;12.00;9.00;;;;;;;;5086629;27;62186;-76
2022/10/29 07:30:57;;;;;;;;;9.50;9.00;;;;;;;;5104772;27;61786;-76
2022/10/29 07:33:23;;;;;;;;;9.75;8.00;;;;;;;;5105467;27;61704;-76
2022/10/29 07:35:48;;;;;;;;;13.00;9.50;;;;;;;;5086330;27;61799;-75
2022/10/29 07:38:13;;;;;;;;;11.00;8.00;;;;;;;;5104638;27;62104;-75
2022/10/29 07:40:39;;;;;;;;;9.25;6.00;;;;;;;;5086168;27;64428;-76
2022/10/29 07:43:05;;;;;;;;;11.25;8.25;;;;;;;;5105209;27;61676;-76
2022/10/29 07:45:30;;;;;;;;;12.00;8.25;;;;;;;;5105129;27;62423;-76
2022/10/29 07:47:59;;;;;;;;;11.67;9.00;;;;;;;;5089453;27;61754;-76
2022/10/29 07:50:25;;;;;;;;;5.75;5.75;;;;;;;;5083298;28;63049;-75
2022/10/29 07:52:50;;;;;;;;;15.75;7.00;;;;;;;;5083584;27;61704;-76
2022/10/29 07:55:16;;;;;;;;;19.75;10.25;;;;;;;;5098940;27;61994;-76
2022/10/29 07:57:41;;;;;;;;;10.50;10.50;;;;;;;;5104754;27;61858;-76
2022/10/29 08:00:06;;;;;;;;;8.50;8.00;;;;;;;;5089756;27;61749;-75
2022/10/29 08:02:32;;;;;;;;;9.50;7.00;;;;;;;;5084375;28;61840;-76
2022/10/29 08:04:57;;;;;;;;;10.00;9.00;;;;;;;;5084586;27;61862;-76
2022/10/29 08:07:22;;;;;;;;;13.00;9.00;;;;;;;;5088107;27;61736;-76
2022/10/29 08:09:48;;;;;;;;;12.75;10.75;;;;;;;;5101511;27;61970;-77
2022/10/29 08:12:13;;;;;;;;;9.00;9.00;;;;;;;;5066590;27;62042;-80
2022/10/29 08:14:38;;;;;;;;;10.75;8.00;;;;;;;;5084692;27;62015;-80
2022/10/29 08:17:04;;;;;;;;;10.75;8.25;;;;;;;;5102534;27;61941;-78
2022/10/29 08:19:29;;;;;;;;;11.00;7.00;;;;;;;;5083093;27;64723;-80
2022/10/29 08:21:57;;;;;;;;;7.75;5.50;;;;;;;;5102548;27;61924;-79
2022/10/29 08:24:22;;;;;;;;;9.75;8.75;;;;;;;;5083869;27;62078;-78
2022/10/29 08:26:49;;;;;;;;;9.75;5.00;;;;;;;;5103013;27;62259;-78
2022/10/29 08:29:14;;;;;;;;;5.67;5.00;;;;;;;;5102314;27;62094;-77
2022/10/29 08:31:39;;;;;;;;;11.75;7.25;;;;;;;;5102749;27;61983;-86
2022/10/29 08:34:05;;;;;;;;;8.33;7.00;;;;;;;;5104040;27;61854;-80
2022/10/29 08:36:30;;;;;;;;;8.25;7.75;;;;;;;;5085917;27;61762;-79
2022/10/29 08:39:03;;;;;;;;;8.00;5.75;;;;;;;;5103827;27;62217;-82
2022/10/29 08:41:31;;;;;;;;;11.00;9.00;;;;;;;;5103446;27;61861;-82
2022/10/29 08:44:18;;;;;;;;;9.00;5.67;;;;;;;;5083969;27;61906;-80
2022/10/29 08:46:48;;;;;;;;;9.33;6.33;;;;;;;;5101392;27;61690;-80
2022/10/29 08:49:24;;;;;;;;;8.75;7.00;;;;;;;;5081954;27;63601;-78
2022/10/29 08:52:02;;;;;;;;;7.00;7.00;;;;;;;;5101851;27;61861;-78
2022/10/29 08:54:30;;;;;;;;;10.00;8.00;;;;;;;;5102882;27;61654;-78
2022/10/29 08:56:57;;;;;;;;;11.50;6.00;;;;;;;;5103514;27;61871;-78
2022/10/29 08:59:24;;;;;;;;;10.67;7.67;;;;;;;;5102447;27;63096;-78
2022/10/29 09:01:51;;;;;;;;;9.50;7.00;;;;;;;;5085163;27;61850;-79
2022/10/29 09:04:19;;;;;;;;;5.00;5.00;;;;;;;;5103497;27;61932;-78
2022/10/29 09:07:06;;;;;;;;;5.00;5.00;;;;;;;;5085228;27;61886;-77
2022/10/29 09:09:50;;;;;;;;;11.25;6.75;;;;;;;;5084012;27;61910;-79
2022/10/29 09:12:29;;;;;;;;;10.25;6.75;;;;;;;;5104156;27;62014;-77
2022/10/29 09:15:13;;;;;;;;;4.67;4.67;;;;;;;;5103091;27;61802;-78
2022/10/29 09:17:57;;;;;;;;;7.67;5.00;;;;;;;;5102194;27;61858;-77
2022/10/29 09:20:29;;;;;;;;;6.33;5.67;;;;;;;;5080859;27;64428;-78
2022/10/29 09:23:03;;;;;;;;;5.00;5.00;;;;;;;;5102874;27;61742;-78
2022/10/29 09:25:30;;;;;;;;;8.00;4.67;;;;;;;;5084831;27;61712;-78
2022/10/29 09:28:14;;;;;;;;;7.00;6.00;;;;;;;;5085130;27;62025;-78
2022/10/29 09:30:51;;;;;;;;;6.00;6.00;;;;;;;;5102461;27;62852;-78
2022/10/29 09:33:18;;;;;;;;;6.00;5.67;;;;;;;;5084704;27;61779;-78
2022/10/29 09:35:46;;;;;;;;;9.00;7.50;;;;;;;;5085191;27;61910;-78
2022/10/29 09:38:17;;;;;;;;;8.00;8.00;;;;;;;;5103371;27;61770;-78
2022/10/29 09:40:43;;;;;;;;;8.00;7.00;;;;;;;;5102699;27;62218;-78
2022/10/29 09:43:27;;;;;;;;;7.00;6.00;;;;;;;;5084995;27;61890;-78
2022/10/29 09:45:59;;;;;;;;;11.67;7.33;;;;;;;;5103665;27;62057;-78
2022/10/29 09:48:31;;;;;;;;;9.33;6.00;;;;;;;;5102130;27;61890;-78
2022/10/29 09:51:02;;;;;;;;;8.00;8.00;;;;;;;;5102588;27;61979;-77
2022/10/29 09:53:28;;;;;;;;;16.00;9.00;;;;;;;;5102824;27;62115;-78
2022/10/29 09:55:53;;;;;;;;;7.67;7.00;;;;;;;;5103151;27;62448;-78
2022/10/29 09:58:20;;;;;;;;;6.33;4.33;;;;;;;;5103526;27;61895;-77
2022/10/29 10:00:45;;;;;;;;;5.00;4.00;;;;;;;;5083849;27;61822;-78
2022/10/29 10:03:34;;;;;;;;;12.33;6.67;;;;;;;;5084278;27;61949;-78
2022/10/29 10:06:03;;;;;;;;;8.33;6.33;;;;;;;;5103299;27;61926;-78
2022/10/29 10:08:29;;;;;;;;;9.67;7.33;;;;;;;;5084416;27;61855;-78
2022/10/29 10:11:03;;;;;;;;;7.67;6.00;;;;;;;;5102594;27;61803;-78
2022/10/29 10:13:33;;;;;;;;;9.00;7.00;;;;;;;;5084301;27;61884;-78
2022/10/29 10:15:59;;;;;;;;;9.33;7.67;;;;;;;;5103001;27;61860;-77
2022/10/29 10:18:26;;;;;;;;;5.00;4.00;;;;;;;;5102378;27;61688;-78
2022/10/29 10:21:01;;;;;;;;;10.33;6.67;;;;;;;;5083541;27;63626;-78
2022/10/29 10:23:28;;;;;;;;;9.33;5.67;;;;;;;;5083876;27;61914;-78
2022/10/29 10:25:54;;;;;;;;;8.67;7.00;;;;;;;;5102820;27;62084;-78
2022/10/29 10:28:29;;;;;;;;;10.33;5.67;;;;;;;;5102997;27;61888;-78
2022/10/29 10:31:06;;;;;;;;;8.00;5.67;;;;;;;;5085609;27;61815;-78
2022/10/29 10:33:32;;;;;;;;;11.33;8.00;;;;;;;;5087491;27;61861;-78
2022/10/29 10:36:03;;;;;;;;;7.67;5.33;;;;;;;;5106393;27;61934;-78
2022/10/29 10:38:36;;;;;;;;;10.33;6.00;;;;;;;;5087845;27;62171;-78
2022/10/29 10:41:05;;;;;;;;;9.33;7.33;;;;;;;;5105099;27;61997;-78
2022/10/29 10:43:31;;;;;;;;;6.33;5.00;;;;;;;;5106209;27;61881;-78
2022/10/29 10:45:58;;;;;;;;;6.33;4.67;;;;;;;;5105850;27;61670;-78
2022/10/29 10:48:26;;;;;;;;;9.00;6.00;;;;;;;;5105798;27;61845;-78
2022/10/29 10:51:07;;;;;;;;;6.67;5.00;;;;;;;;5105228;27;61831;-78
2022/10/29 10:53:33;;;;;;;;;6.33;4.00;;;;;;;;5087449;27;61925;-78
2022/10/29 10:55:58;;;;;;;;;5.33;3.33;;;;;;;;5106028;27;62295;-78
2022/10/29 10:58:27;;;;;;;;;6.00;5.00;;;;;;;;5106244;27;61806;-78
2022/10/29 11:01:01;;;;;;;;;6.67;4.33;;;;;;;;5104516;27;61949;-79
2022/10/29 11:03:31;;;;;;;;;5.00;5.00;;;;;;;;5087827;27;61938;-78
2022/10/29 11:06:00;;;;;;;;;6.00;5.00;;;;;;;;5105892;27;61699;-78
2022/10/29 11:08:27;;;;;;;;;7.33;5.00;;;;;;;;5105881;27;61877;-78
2022/10/29 11:10:55;;;;;;;;;5.67;3.00;;;;;;;;5086702;27;61922;-78
2022/10/29 11:13:22;;;;;;;;;8.00;6.00;;;;;;;;5105587;27;61747;-78
2022/10/29 11:15:59;;;;;;;;;10.00;6.00;;;;;;;;5086731;27;61721;-78
2022/10/29 11:18:32;;;;;;;;;7.33;5.33;;;;;;;;5105506;27;61826;-77
2022/10/29 11:21:03;;;;;;;;;3.00;3.00;;;;;;;;5104598;27;62666;-77
2022/10/29 11:23:41;;;;;;;;;5.00;3.67;;;;;;;;5105347;27;61983;-77
2022/10/29 11:26:10;;;;;;;;;8.00;5.67;;;;;;;;5105604;27;61641;-77
2022/10/29 11:28:43;;;;;;;;;9.00;4.33;;;;;;;;5105653;27;61921;-77
2022/10/29 11:31:11;;;;;;;;;7.00;6.33;;;;;;;;5104394;27;62046;-77
2022/10/29 11:33:49;;;;;;;;;8.00;6.00;;;;;;;;5105491;27;61735;-77
2022/10/29 11:36:21;;;;;;;;;6.00;6.00;;;;;;;;5087239;27;61846;-77
2022/10/29 11:38:46;;;;;;;;;8.67;5.33;;;;;;;;5086362;27;62091;-77
2022/10/29 11:41:18;;;;;;;;;6.00;5.00;;;;;;;;5085555;27;61842;-77
2022/10/29 11:43:45;;;;;;;;;5.67;4.67;;;;;;;;5104983;27;61741;-77
2022/10/29 11:46:14;;;;;;;;;5.00;3.67;;;;;;;;5105452;27;61988;-77
2022/10/29 11:48:53;;;;;;;;;6.00;6.00;;;;;;;;5086298;27;62019;-77
2022/10/29 11:51:24;;;;;;;;;6.00;6.00;;;;;;;;5085567;27;63664;-78
2022/10/29 11:54:08;;;;;;;;;6.00;5.67;;;;;;;;5104719;27;61723;-77
2022/10/29 11:56:46;;;;;;;;;8.00;4.33;;;;;;;;5105120;27;61774;-77
2022/10/29 11:59:30;;;;;;;;;6.00;6.00;;;;;;;;5104679;27;62020;-78
2022/10/29 12:02:14;;;;;;;;;5.00;5.00;;;;;;;;5085762;27;63243;-77
2022/10/29 12:04:52;;;;;;;;;4.00;4.00;;;;;;;;5086281;27;61787;-77
2022/10/29 12:07:34;;;;;;;;;4.67;4.00;;;;;;;;5086410;27;61855;-77
2022/10/29 12:10:18;;;;;;;;;4.67;4.33;;;;;;;;5104569;27;61838;-78
2022/10/29 12:12:47;;;;;;;;;7.00;5.00;;;;;;;;5085811;27;61841;-77
2022/10/29 12:15:22;;;;;;;;;9.33;6.00;;;;;;;;5086273;27;61716;-77
2022/10/29 12:17:53;;;;;;;;;4.00;4.00;;;;;;;;5104847;27;61772;-77
2022/10/29 12:20:18;;;;;;;;;6.67;6.67;;;;;;;;5085926;27;62004;-77
2022/10/29 12:22:53;;;;;;;;;9.33;6.00;;;;;;;;5085751;27;63347;-77
2022/10/29 12:25:27;;;;;;;;;8.00;4.67;;;;;;;;5086207;27;62019;-77
2022/10/29 12:27:52;;;;;;;;;7.33;5.33;;;;;;;;5104071;27;61806;-77
2022/10/29 12:30:18;;;;;;;;;7.33;4.33;;;;;;;;5104808;27;61927;-77
2022/10/29 12:32:52;;;;;;;;;6.67;5.00;;;;;;;;5085540;27;62963;-77
2022/10/29 12:35:21;;;;;;;;;6.33;4.00;;;;;;;;5104705;27;61806;-77
2022/10/29 12:37:58;;;;;;;;;4.00;4.00;;;;;;;;5086212;27;61728;-77
2022/10/29 12:40:27;;;;;;;;;8.33;5.33;;;;;;;;5104202;27;61953;-77
2022/10/29 12:42:53;;;;;;;;;5.67;5.67;;;;;;;;5084920;27;62002;-77
2022/10/29 12:45:37;;;;;;;;;4.67;4.67;;;;;;;;5085712;27;61799;-77
2022/10/29 12:48:08;;;;;;;;;5.33;3.67;;;;;;;;5104151;27;61992;-77
2022/10/29 12:50:56;;;;;;;;;5.00;3.00;;;;;;;;5103787;27;61972;-77
2022/10/29 12:53:34;;;;;;;;;6.00;4.67;;;;;;;;5019632;28;62030;-77
2022/10/29 12:56:00;;;;;;;;;8.67;5.33;;;;;;;;5020442;28;61827;-77
2022/10/29 12:58:45;;;;;;;;;6.00;5.00;;;;;;;;5020478;28;61823;-77
2022/10/29 13:01:25;;;;;;;;;7.00;5.00;;;;;;;;5020750;28;62046;-77
2022/10/29 13:03:53;;;;;;;;;4.00;3.00;;;;;;;;5020072;28;62112;-78
2022/10/29 13:06:37;;;;;;;;;5.33;3.00;;;;;;;;5004127;28;62217;-77
2022/10/29 13:09:14;;;;;;;;;5.33;5.00;;;;;;;;5020102;28;61842;-77
2022/10/29 13:11:45;;;;;;;;;6.33;5.00;;;;;;;;5003128;28;61993;-78
2022/10/29 13:14:12;;;;;;;;;6.00;5.33;;;;;;;;5019726;28;62614;-77
2022/10/29 13:16:39;;;;;;;;;5.33;3.67;;;;;;;;5003716;28;61956;-77
2022/10/29 13:19:11;;;;;;;;;4.00;3.00;;;;;;;;5003144;28;61956;-77
2022/10/29 13:21:56;;;;;;;;;5.00;3.33;;;;;;;;5019973;28;61991;-78
2022/10/29 13:24:21;;;;;;;;;4.00;3.00;;;;;;;;5019131;28;62131;-78
2022/10/29 13:26:53;;;;;;;;;5.33;3.33;;;;;;;;5003089;28;62279;-78
2022/10/29 13:29:41;;;;;;;;;3.67;3.67;;;;;;;;5023062;28;61880;-77
2022/10/29 13:32:07;;;;;;;;;8.33;4.67;;;;;;;;5075650;28;62071;-77
2022/10/29 13:34:48;;;;;;;;;3.67;2.67;;;;;;;;5082469;27;61833;-77
2022/10/29 13:37:32;;;;;;;;;5.33;4.00;;;;;;;;5082891;28;62110;-77
2022/10/29 13:40:16;;;;;;;;;2.67;2.67;;;;;;;;5081912;27;61913;-77
2022/10/29 13:42:42;;;;;;;;;3.67;1.67;;;;;;;;5081808;27;62101;-78
2022/10/29 13:45:10;;;;;;;;;4.00;2.00;;;;;;;;5082190;28;62050;-77
2022/10/29 13:47:38;;;;;;;;;7.67;3.33;;;;;;;;5082168;27;61625;-78
2022/10/29 13:50:04;;;;;;;;;4.00;4.00;;;;;;;;5082314;28;61766;-78
2022/10/29 13:52:34;;;;;;;;;4.00;4.00;;;;;;;;5081568;27;61918;-77
2022/10/29 13:55:05;;;;;;;;;4.00;4.00;;;;;;;;5079965;28;62003;-77
2022/10/29 13:57:43;;;;;;;;;6.67;5.00;;;;;;;;5098191;27;61939;-78
2022/10/29 14:00:11;;;;;;;;;4.67;3.67;;;;;;;;5102946;27;61715;-77
2022/10/29 14:02:42;;;;;;;;;5.00;3.00;;;;;;;;5084628;27;61857;-77
2022/10/29 14:05:13;;;;;;;;;6.00;4.67;;;;;;;;5101749;27;62980;-77
2022/10/29 14:07:57;;;;;;;;;4.00;3.00;;;;;;;;5084444;27;62114;-77
2022/10/29 14:10:28;;;;;;;;;3.00;2.33;;;;;;;;5101705;27;61843;-77
2022/10/29 14:13:00;;;;;;;;;4.00;4.00;;;;;;;;5084859;27;61637;-78
2022/10/29 14:15:25;;;;;;;;;4.00;4.00;;;;;;;;5102217;27;62808;-77
2022/10/29 14:17:50;;;;;;;;;5.33;4.00;;;;;;;;5102971;27;61870;-77
2022/10/29 14:20:24;;;;;;;;;3.00;3.00;;;;;;;;5102332;27;61823;-77
2022/10/29 14:22:49;;;;;;;;;4.67;3.00;;;;;;;;5084760;27;61951;-77
2022/10/29 14:25:26;;;;;;;;;4.67;2.33;;;;;;;;5101350;27;62039;-77
2022/10/29 14:28:10;;;;;;;;;3.00;3.00;;;;;;;;5084487;27;61843;-77
2022/10/29 14:30:36;;;;;;;;;2.67;2.33;;;;;;;;5102835;27;61923;-77
2022/10/29 14:33:15;;;;;;;;;5.67;3.67;;;;;;;;5102815;27;62122;-77
2022/10/29 14:35:40;;;;;;;;;4.00;2.00;;;;;;;;5102101;27;63017;-78
2022/10/29 14:38:06;;;;;;;;;3.33;2.00;;;;;;;;5101927;27;61834;-78
2022/10/29 14:40:31;;;;;;;;;4.33;3.00;;;;;;;;5102376;27;62033;-77
2022/10/29 14:42:56;;;;;;;;;5.33;2.67;;;;;;;;5084446;27;62012;-77
2022/10/29 14:45:23;;;;;;;;;6.33;5.00;;;;;;;;5101974;27;62101;-77
2022/10/29 14:48:08;;;;;;;;;3.33;2.00;;;;;;;;5091886;27;62036;-77